createdAt,value
2018-01-23T00:00:48.575Z,26.90
2018-01-23T00:03:16.892Z,26.98
2018-01-23T00:05:45.260Z,25.30
2018-01-23T00:08:13.602Z,26.30
2018-01-23T00:10:41.981Z,27.50
2018-01-23T00:13:10.345Z,29.50
2018-01-23T00:15:38.684Z,25.55
2018-01-23T00:18:07.019Z,25.40
2018-01-23T00:20:35.728Z,25.77
2018-01-23T00:23:04.793Z,27.25
2018-01-23T00:25:33.103Z,27.10
2018-01-23T00:28:01.626Z,29.90
2018-01-23T00:30:29.925Z,28.55
2018-01-23T00:32:58.238Z,27.73
2018-01-23T00:35:26.558Z,27.58
2018-01-23T00:37:54.848Z,26.37
2018-01-23T00:40:23.208Z,27.15
2018-01-23T00:42:51.794Z,26.70
2018-01-23T00:45:20.125Z,25.00
2018-01-23T00:47:48.457Z,24.90
2018-01-23T00:50:16.840Z,25.10
2018-01-23T00:52:45.147Z,25.73
2018-01-23T00:55:13.449Z,26.73
2018-01-23T00:57:41.812Z,25.55
2018-01-23T01:00:10.113Z,25.77
2018-01-23T01:02:39.183Z,27.83
2018-01-23T01:05:07.914Z,27.42
2018-01-23T01:07:36.228Z,24.58
2018-01-23T01:10:04.557Z,23.48
2018-01-23T01:12:33.668Z,24.35
2018-01-23T01:15:01.987Z,25.05
2018-01-23T01:17:31.083Z,24.33
2018-01-23T01:19:59.431Z,23.40
2018-01-23T01:22:27.762Z,22.10
2018-01-23T01:24:56.054Z,22.62
2018-01-23T01:27:24.949Z,24.25
2018-01-23T01:29:53.255Z,23.17
2018-01-23T01:32:21.626Z,24.20
2018-01-23T01:34:49.957Z,23.87
2018-01-23T01:37:18.688Z,24.00
2018-01-23T01:39:47.063Z,22.50
2018-01-23T01:42:15.416Z,22.50
2018-01-23T01:44:43.760Z,23.45
2018-01-23T01:47:12.064Z,23.70
2018-01-23T01:49:40.877Z,23.50
2018-01-23T01:52:09.176Z,23.80
2018-01-23T01:54:37.507Z,22.62
2018-01-23T01:57:05.840Z,22.65
2018-01-23T01:59:34.156Z,22.83
2018-01-23T02:02:02.452Z,22.40
2018-01-23T02:04:30.789Z,22.77
2018-01-23T02:06:59.151Z,21.85
2018-01-23T02:09:27.450Z,22.52
2018-01-23T02:11:56.185Z,23.10
2018-01-23T02:16:59.793Z,22.87
2018-01-23T02:19:28.109Z,22.98
2018-01-23T02:21:56.462Z,20.92
2018-01-23T02:24:24.826Z,20.08
2018-01-23T02:26:53.158Z,22.20
2018-01-23T02:29:21.476Z,19.85
2018-01-23T02:32:00.350Z,20.12
2018-01-23T02:34:28.716Z,21.80
2018-01-23T02:36:57.019Z,23.62
2018-01-23T02:39:25.338Z,21.50
2018-01-23T02:41:53.631Z,23.30
2018-01-23T02:44:22.938Z,20.00
2018-01-23T02:46:51.303Z,21.08
2018-01-23T02:49:19.621Z,20.70
2018-01-23T02:51:47.936Z,20.85
2018-01-23T02:54:16.716Z,20.10
2018-01-23T02:56:45.043Z,20.33
2018-01-23T02:59:14.151Z,19.23
2018-01-23T03:01:43.252Z,21.12
2018-01-23T03:04:11.617Z,19.60
2018-01-23T03:06:39.951Z,19.55
2018-01-23T03:09:08.321Z,19.15
2018-01-23T03:11:37.416Z,20.17
2018-01-23T03:14:06.481Z,21.42
2018-01-23T03:16:35.850Z,20.80
2018-01-23T03:19:04.166Z,19.70
2018-01-23T03:21:32.510Z,20.58
2018-01-23T03:24:00.940Z,20.30
2018-01-23T03:26:29.243Z,19.45
2018-01-23T03:28:57.574Z,18.85
2018-01-23T03:31:25.936Z,19.00
2018-01-23T03:33:54.302Z,18.60
2018-01-23T03:36:22.656Z,20.37
2018-01-23T03:38:52.041Z,20.73
2018-01-23T03:41:20.373Z,18.48
2018-01-23T03:43:48.697Z,20.00
2018-01-23T03:46:17.062Z,18.77
2018-01-23T03:48:45.368Z,19.37
2018-01-23T03:51:13.707Z,20.62
2018-01-23T03:53:42.052Z,21.58
2018-01-23T03:56:10.365Z,18.85
2018-01-23T03:58:38.678Z,18.60
2018-01-23T04:01:07.145Z,19.00
2018-01-23T04:03:35.431Z,19.40
2018-01-23T04:06:03.777Z,19.40
2018-01-23T04:08:32.128Z,20.12
2018-01-23T04:11:00.472Z,20.37
2018-01-23T04:13:28.787Z,19.33
2018-01-23T04:15:57.114Z,18.65
2018-01-23T04:18:25.437Z,20.23
2018-01-23T04:20:53.756Z,20.90
2018-01-23T04:23:22.507Z,19.95
2018-01-23T04:25:50.856Z,19.15
2018-01-23T04:28:19.186Z,19.35
2018-01-23T04:30:47.543Z,20.15
2018-01-23T04:33:15.853Z,21.62
2018-01-23T04:35:44.139Z,21.92
2018-01-23T04:38:12.461Z,21.10
2018-01-23T04:40:40.776Z,20.10
2018-01-23T04:43:09.076Z,19.42
2018-01-23T04:45:37.756Z,19.83
2018-01-23T04:48:06.054Z,18.60
2018-01-23T04:50:34.392Z,19.50
2018-01-23T04:53:02.772Z,21.67
2018-01-23T04:55:31.037Z,19.75
2018-01-23T04:57:59.356Z,19.20
2018-01-23T05:00:28.215Z,18.55
2018-01-23T05:02:56.512Z,18.23
2018-01-23T05:05:24.851Z,16.65
2018-01-23T05:07:53.400Z,17.27
2018-01-23T05:10:22.472Z,19.25
2018-01-23T05:12:50.851Z,18.80
2018-01-23T05:15:19.206Z,17.73
2018-01-23T05:17:47.524Z,18.62
2018-01-23T05:20:16.662Z,19.75
2018-01-23T05:22:44.982Z,18.48
2018-01-23T05:25:13.281Z,18.52
2018-01-23T05:27:41.593Z,19.52
2018-01-23T05:30:09.987Z,18.90
2018-01-23T05:32:38.304Z,19.90
2018-01-23T05:35:06.636Z,19.65
2018-01-23T05:37:34.980Z,18.27
2018-01-23T05:40:04.040Z,18.30
2018-01-23T05:42:32.381Z,18.92
2018-01-23T05:45:00.721Z,19.62
2018-01-23T05:47:29.027Z,17.42
2018-01-23T05:49:57.317Z,18.83
2018-01-23T05:52:26.075Z,18.02
2018-01-23T05:54:55.135Z,18.27
2018-01-23T05:57:24.208Z,18.67
2018-01-23T05:59:52.525Z,19.65
2018-01-23T06:02:20.831Z,16.65
2018-01-23T06:04:49.126Z,17.80
2018-01-23T06:07:17.467Z,18.80
2018-01-23T06:09:45.793Z,18.52
2018-01-23T06:12:14.096Z,18.25
2018-01-23T06:14:42.715Z,17.95
2018-01-23T06:17:11.794Z,18.85
2018-01-23T06:19:40.162Z,20.27
2018-01-23T06:22:08.532Z,20.08
2018-01-23T06:24:36.891Z,19.50
2018-01-23T06:27:05.194Z,18.67
2018-01-23T06:29:33.547Z,18.17
2018-01-23T06:32:01.868Z,20.17
2018-01-23T06:34:30.189Z,18.95
2018-01-23T06:36:58.696Z,18.75
2018-01-23T06:39:26.990Z,18.98
2018-01-23T06:41:55.283Z,19.45
2018-01-23T06:44:23.596Z,18.50
2018-01-23T06:46:51.904Z,19.77
2018-01-23T06:49:20.241Z,19.10
2018-01-23T06:51:48.606Z,18.90
2018-01-23T06:54:17.676Z,19.27
2018-01-23T06:56:45.969Z,18.62
2018-01-23T06:59:14.553Z,20.40
2018-01-23T07:01:42.883Z,20.75
2018-01-23T07:04:11.184Z,20.27
2018-01-23T07:06:39.525Z,20.42
2018-01-23T07:09:07.893Z,19.25
2018-01-23T07:11:36.180Z,21.40
2018-01-23T07:14:04.552Z,18.40
2018-01-23T07:16:32.878Z,19.40
2018-01-23T07:19:01.198Z,20.35
2018-01-23T07:21:30.699Z,20.55
2018-01-23T07:23:59.796Z,19.02
2018-01-23T07:26:28.132Z,18.55
2018-01-23T07:28:56.479Z,20.45
2018-01-23T07:31:24.800Z,19.80
2018-01-23T07:33:53.099Z,21.23
2018-01-23T07:36:21.483Z,21.58
2018-01-23T07:38:50.570Z,21.02
2018-01-23T07:41:18.912Z,20.58
2018-01-23T07:43:47.478Z,20.80
2018-01-23T07:46:15.832Z,19.37
2018-01-23T07:48:44.185Z,20.90
2018-01-23T07:51:12.561Z,21.25
2018-01-23T07:53:40.876Z,22.15
2018-01-23T07:56:09.180Z,41.22
2018-01-23T07:58:37.529Z,22.13
2018-01-23T08:01:05.852Z,22.15
2018-01-23T08:03:34.197Z,21.50
2018-01-23T08:06:02.940Z,22.77
2018-01-23T08:08:31.301Z,21.30
2018-01-23T08:10:59.628Z,21.67
2018-01-23T08:13:27.992Z,22.17
2018-01-23T08:15:56.320Z,21.23
2018-01-23T08:18:24.649Z,23.25
2018-01-23T08:20:53.741Z,22.58
2018-01-23T08:23:22.805Z,21.05
2018-01-23T08:25:51.108Z,22.98
2018-01-23T08:28:19.936Z,23.67
2018-01-23T08:30:48.261Z,23.55
2018-01-23T08:33:16.575Z,24.05
2018-01-23T08:35:44.943Z,24.45
2018-01-23T08:38:13.266Z,24.57
2018-01-23T08:40:41.569Z,25.67
2018-01-23T08:43:09.916Z,29.47
2018-01-23T08:45:38.217Z,26.20
2018-01-23T08:48:06.531Z,25.10
2018-01-23T08:50:35.227Z,24.33
2018-01-23T08:53:04.327Z,25.73
2018-01-23T08:55:33.419Z,26.77
2018-01-23T08:58:01.747Z,24.67
2018-01-23T09:00:30.091Z,26.70
2018-01-23T09:02:58.494Z,25.20
2018-01-23T09:05:26.818Z,26.07
2018-01-23T09:07:55.181Z,26.63
2018-01-23T09:10:23.508Z,25.97
2018-01-23T09:12:52.147Z,28.17
2018-01-23T09:15:20.496Z,28.30
2018-01-23T09:17:48.814Z,29.30
2018-01-23T09:20:17.173Z,29.90
2018-01-23T09:22:45.508Z,28.03
2018-01-23T09:25:13.817Z,26.77
2018-01-23T09:27:42.159Z,30.60
2018-01-23T09:30:10.495Z,29.70
2018-01-23T09:32:38.809Z,28.47
2018-01-23T09:35:07.478Z,26.83
2018-01-23T09:37:35.804Z,29.00
2018-01-23T09:40:04.109Z,28.97
2018-01-23T09:42:32.712Z,28.20
2018-01-23T09:45:01.065Z,29.93
2018-01-23T09:47:29.361Z,28.93
2018-01-23T09:49:57.715Z,28.37
2018-01-23T09:52:26.075Z,27.40
2018-01-23T09:54:54.395Z,28.93
2018-01-23T09:57:22.863Z,27.40
2018-01-23T09:59:51.184Z,27.17
2018-01-23T10:02:20.285Z,27.93
2018-01-23T10:04:48.651Z,26.55
2018-01-23T10:07:17.044Z,29.70
2018-01-23T10:09:46.135Z,28.37
2018-01-23T10:12:15.264Z,25.10
2018-01-23T10:14:43.580Z,27.17
2018-01-23T10:17:11.916Z,28.23
2018-01-23T10:19:41.623Z,26.30
2018-01-23T10:22:09.953Z,26.80
2018-01-23T10:24:38.300Z,24.67
2018-01-23T10:27:06.635Z,26.07
2018-01-23T10:29:34.977Z,24.57
2018-01-23T10:32:03.287Z,24.63
2018-01-23T10:34:32.368Z,25.80
2018-01-23T10:37:00.723Z,24.53
2018-01-23T10:39:29.030Z,26.00
2018-01-23T10:41:57.588Z,24.33
2018-01-23T10:44:25.937Z,25.37
2018-01-23T10:46:54.267Z,26.40
2018-01-23T10:49:22.641Z,25.30
2018-01-23T10:51:50.955Z,24.33
2018-01-23T10:54:19.299Z,24.43
2018-01-23T10:56:47.665Z,25.27
2018-01-23T10:59:15.984Z,27.77
2018-01-23T11:01:44.334Z,27.87
2018-01-23T11:04:12.970Z,25.53
2018-01-23T11:06:41.299Z,28.07
2018-01-23T11:09:09.643Z,29.37
2018-01-23T11:11:37.992Z,27.03
2018-01-23T11:14:06.365Z,26.37
2018-01-23T11:16:34.695Z,29.20
2018-01-23T11:19:03.138Z,26.50
2018-01-23T11:21:31.471Z,28.80
2018-01-23T11:23:59.995Z,27.63
2018-01-23T11:26:28.728Z,27.53
2018-01-23T11:28:57.043Z,27.63
2018-01-23T11:31:26.145Z,27.10
2018-01-23T11:33:54.539Z,28.63
2018-01-23T11:36:22.871Z,29.20
2018-01-23T11:38:51.183Z,28.37
2018-01-23T11:41:19.525Z,29.03
2018-01-23T11:43:47.876Z,26.90
2018-01-23T11:46:16.211Z,27.20
2018-01-23T11:48:45.096Z,28.57
2018-01-23T11:51:13.448Z,26.83
2018-01-23T11:53:41.752Z,28.00
2018-01-23T11:56:10.868Z,26.50
2018-01-23T11:58:39.192Z,29.23
2018-01-23T12:01:07.530Z,28.00
2018-01-23T12:03:36.504Z,28.23
2018-01-23T12:06:05.611Z,26.97
2018-01-23T12:08:34.694Z,25.73
2018-01-23T12:11:03.971Z,26.00
2018-01-23T12:13:32.307Z,27.37
2018-01-23T12:16:00.643Z,27.47
2018-01-23T12:18:29.000Z,25.50
2018-01-23T12:20:57.378Z,24.37
2018-01-23T12:23:25.709Z,25.80
2018-01-23T12:25:54.057Z,25.97
2018-01-23T12:28:23.132Z,25.27
2018-01-23T12:30:51.430Z,26.60
2018-01-23T12:33:20.432Z,27.03
2018-01-23T12:35:49.551Z,25.63
2018-01-23T12:38:17.916Z,26.10
2018-01-23T12:40:47.058Z,28.47
2018-01-23T12:43:15.518Z,27.77
2018-01-23T12:45:43.845Z,28.17
2018-01-23T12:48:12.204Z,25.23
2018-01-23T12:50:40.593Z,23.93
2018-01-23T12:53:08.906Z,24.77
2018-01-23T12:55:38.442Z,25.03
2018-01-23T12:58:06.771Z,24.43
2018-01-23T13:00:35.106Z,25.50
2018-01-23T13:03:03.427Z,25.37
2018-01-23T13:05:31.739Z,25.63
2018-01-23T13:08:00.053Z,26.37
2018-01-23T13:10:28.405Z,24.60
2018-01-23T13:12:56.709Z,26.37
2018-01-23T13:15:25.041Z,25.53
2018-01-23T13:17:53.688Z,25.43
2018-01-23T13:20:21.992Z,26.63
2018-01-23T13:22:50.438Z,25.70
2018-01-23T13:25:18.773Z,24.37
2018-01-23T13:27:47.106Z,25.57
2018-01-23T13:30:15.420Z,25.50
2018-01-23T13:32:44.519Z,25.10
2018-01-23T13:35:13.601Z,22.73
2018-01-23T13:37:42.705Z,23.37
2018-01-23T13:40:12.077Z,23.60
2018-01-23T13:42:40.430Z,25.07
2018-01-23T13:45:08.744Z,21.90
2018-01-23T13:47:37.081Z,22.97
2018-01-23T13:50:05.414Z,24.20
2018-01-23T13:52:33.738Z,23.37
2018-01-23T13:55:02.092Z,22.83
2018-01-23T13:57:31.214Z,21.43
2018-01-23T13:59:59.566Z,20.77
2018-01-23T14:02:28.640Z,21.17
2018-01-23T14:04:56.967Z,21.77
2018-01-23T14:07:25.312Z,22.10
2018-01-23T14:09:54.452Z,20.13
2018-01-23T14:12:22.807Z,21.20
2018-01-23T14:14:51.142Z,20.73
2018-01-23T14:17:19.571Z,20.87
2018-01-23T14:19:47.897Z,19.70
2018-01-23T14:22:16.215Z,22.23
2018-01-23T14:24:44.969Z,21.33
2018-01-23T14:27:13.341Z,21.87
2018-01-23T14:29:41.706Z,21.83
2018-01-23T14:32:10.074Z,23.27
2018-01-23T14:34:38.404Z,21.40
2018-01-23T14:37:07.460Z,23.13
2018-01-23T14:39:35.805Z,24.23
2018-01-23T14:42:04.125Z,24.10
2018-01-23T14:44:32.444Z,24.10
2018-01-23T14:47:01.057Z,25.43
2018-01-23T14:49:29.393Z,25.07
2018-01-23T14:51:59.412Z,24.90
2018-01-23T14:54:28.553Z,23.90
2018-01-23T14:56:56.912Z,24.40
2018-01-23T14:59:25.250Z,24.60
2018-01-23T15:01:54.387Z,24.10
2018-01-23T15:04:22.776Z,23.70
2018-01-23T15:06:51.076Z,23.20
2018-01-23T15:09:19.887Z,23.33
2018-01-23T15:11:48.224Z,23.87
2018-01-23T15:14:16.528Z,23.70
2018-01-23T15:16:44.902Z,22.70
2018-01-23T15:19:13.248Z,24.10
2018-01-23T15:21:41.562Z,22.90
2018-01-23T15:24:09.905Z,21.90
2018-01-23T15:26:38.252Z,23.80
2018-01-23T15:29:06.562Z,23.10
2018-01-23T15:31:35.418Z,22.57
2018-01-23T15:34:03.732Z,21.80
2018-01-23T15:36:32.035Z,21.63
2018-01-23T15:39:00.417Z,21.20
2018-01-23T15:41:28.748Z,22.70
2018-01-23T15:43:57.068Z,22.40
2018-01-23T15:46:25.457Z,22.33
2018-01-23T15:48:53.772Z,20.40
2018-01-23T15:51:22.111Z,20.83
2018-01-23T15:53:50.913Z,19.13
2018-01-23T15:56:19.217Z,19.17
2018-01-23T15:58:47.566Z,19.77
2018-01-23T16:01:15.899Z,19.17
2018-01-23T16:03:44.284Z,19.10
2018-01-23T16:06:12.610Z,17.87
2018-01-23T16:08:40.973Z,19.10
2018-01-23T16:11:09.370Z,16.70
2018-01-23T16:13:37.764Z,16.90
2018-01-23T16:16:07.262Z,15.87
2018-01-23T16:18:35.601Z,15.37
2018-01-23T16:21:03.943Z,15.20
2018-01-23T16:23:33.099Z,15.60
2018-01-23T16:26:01.437Z,14.47
2018-01-23T16:28:29.764Z,13.47
2018-01-23T16:30:58.149Z,16.57
2018-01-23T16:33:26.502Z,12.60
2018-01-23T16:35:54.853Z,13.33
2018-01-23T16:38:23.260Z,13.20
2018-01-23T16:40:51.664Z,12.77
2018-01-23T16:43:20.014Z,14.03
2018-01-23T16:45:48.376Z,13.20
2018-01-23T16:48:16.745Z,13.17
2018-01-23T16:50:45.095Z,13.30
2018-01-23T16:53:13.540Z,12.43
2018-01-23T16:55:42.693Z,12.83
2018-01-23T16:58:11.781Z,12.93
2018-01-23T17:00:41.280Z,13.50
2018-01-23T17:03:10.340Z,13.73
2018-01-23T17:05:38.645Z,13.00
2018-01-23T17:08:07.750Z,12.90
2018-01-23T17:10:36.850Z,13.47
2018-01-23T17:13:05.928Z,12.30
2018-01-23T17:15:34.259Z,12.30
2018-01-23T17:18:02.572Z,13.30
2018-01-23T17:20:30.858Z,13.30
2018-01-23T17:22:59.529Z,13.93
2018-01-23T17:25:27.831Z,13.37
2018-01-23T17:27:56.155Z,16.03
2018-01-23T17:30:24.516Z,13.70
2018-01-23T17:32:52.833Z,13.80
2018-01-23T17:35:21.136Z,12.83
2018-01-23T17:37:49.500Z,12.40
2018-01-23T17:40:17.809Z,12.10
2018-01-23T17:42:46.900Z,12.37
2018-01-23T17:45:16.102Z,12.27
2018-01-23T17:47:45.406Z,11.40
2018-01-23T17:50:14.504Z,11.67
2018-01-23T17:52:43.605Z,11.93
2018-01-23T17:55:12.745Z,11.97
2018-01-23T17:57:41.055Z,10.93
2018-01-23T18:00:09.390Z,11.37
2018-01-23T18:02:37.685Z,11.17
2018-01-23T18:05:06.025Z,9.80
2018-01-23T18:07:34.739Z,11.53
2018-01-23T18:10:03.123Z,11.20
2018-01-23T18:12:31.432Z,10.20
2018-01-23T18:14:59.809Z,9.73
2018-01-23T18:17:28.247Z,8.60
2018-01-23T18:19:56.628Z,10.87
2018-01-23T18:22:25.001Z,10.10
2018-01-23T18:24:53.427Z,10.77
2018-01-23T18:27:21.807Z,9.90
2018-01-23T18:29:50.433Z,10.50
2018-01-23T18:32:18.755Z,9.43
2018-01-23T18:34:47.110Z,9.53
2018-01-23T18:37:15.452Z,9.83
2018-01-23T18:39:43.779Z,9.50
2018-01-23T18:42:12.084Z,10.00
2018-01-23T18:44:41.221Z,10.87
2018-01-23T18:47:09.567Z,10.30
2018-01-23T18:49:37.874Z,10.20
2018-01-23T18:52:06.505Z,10.70
2018-01-23T18:54:34.820Z,11.50
2018-01-23T18:57:03.156Z,10.63
2018-01-23T18:59:31.499Z,9.77
2018-01-23T19:01:59.860Z,10.00
2018-01-23T19:04:28.206Z,8.83
2018-01-23T19:06:56.605Z,10.50
2018-01-23T19:09:24.974Z,10.70
2018-01-23T19:11:53.361Z,11.00
2018-01-23T19:14:21.900Z,10.00
2018-01-23T19:16:50.254Z,9.70
2018-01-23T19:19:19.324Z,10.10
2018-01-23T19:21:47.704Z,9.23
2018-01-23T19:24:16.069Z,8.80
2018-01-23T19:26:44.379Z,10.30
2018-01-23T19:29:13.896Z,9.70
2018-01-23T19:31:42.979Z,9.83
2018-01-23T19:34:12.142Z,9.20
2018-01-23T19:36:40.555Z,9.40
2018-01-23T19:39:09.650Z,9.30
2018-01-23T19:41:38.735Z,9.00
2018-01-23T19:44:07.127Z,8.70
2018-01-23T19:46:36.464Z,9.40
2018-01-23T19:49:04.809Z,8.90
2018-01-23T19:51:33.937Z,9.13
2018-01-23T19:54:02.276Z,9.10
2018-01-23T19:56:30.633Z,9.43
2018-01-23T19:58:59.410Z,9.93
2018-01-23T20:01:27.769Z,9.30
2018-01-23T20:03:56.159Z,10.37
2018-01-23T20:06:24.536Z,9.53
2018-01-23T20:08:53.614Z,9.80
2018-01-23T20:11:21.961Z,10.73
2018-01-23T20:13:51.830Z,10.67
2018-01-23T20:16:20.134Z,9.80
2018-01-23T20:18:48.464Z,8.98
2018-01-23T20:21:17.428Z,10.20
2018-01-23T20:23:45.769Z,9.80
2018-01-23T20:26:14.105Z,9.23
2018-01-23T20:28:42.490Z,10.10
2018-01-23T20:31:10.841Z,10.00
2018-01-23T20:33:39.965Z,9.23
2018-01-23T20:36:08.304Z,8.67
2018-01-23T20:38:36.626Z,10.37
2018-01-23T20:41:04.949Z,8.83
2018-01-23T20:43:33.753Z,8.07
2018-01-23T20:46:02.115Z,9.50
2018-01-23T20:48:30.461Z,9.60
2018-01-23T20:50:58.800Z,9.70
2018-01-23T20:53:27.133Z,8.73
2018-01-23T20:55:55.492Z,8.93
2018-01-23T20:58:23.860Z,9.02
2018-01-23T21:00:52.240Z,8.20
2018-01-23T21:03:20.582Z,8.23
2018-01-23T21:05:49.252Z,7.63
2018-01-23T21:08:17.565Z,7.53
2018-01-23T21:10:45.975Z,7.97
2018-01-23T21:13:14.356Z,7.13
2018-01-23T21:15:43.491Z,8.23
2018-01-23T21:18:11.853Z,8.87
2018-01-23T21:20:40.264Z,7.87
2018-01-23T21:23:09.388Z,8.40
2018-01-23T21:25:37.745Z,7.97
2018-01-23T21:28:07.520Z,8.80
2018-01-23T21:30:36.595Z,8.70
2018-01-23T21:33:04.926Z,8.47
2018-01-23T21:35:33.350Z,8.23
2018-01-23T21:38:01.761Z,8.67
2018-01-23T21:40:30.117Z,8.13
2018-01-23T21:42:58.488Z,9.30
2018-01-23T21:45:26.818Z,9.37
2018-01-23T21:47:55.210Z,9.73
2018-01-23T21:50:23.984Z,9.10
2018-01-23T21:52:52.352Z,9.83
2018-01-23T21:55:20.695Z,8.47
2018-01-23T21:57:49.091Z,9.40
2018-01-23T22:00:17.424Z,10.67
2018-01-23T22:02:45.789Z,9.90
2018-01-23T22:05:14.961Z,9.93
2018-01-23T22:07:43.284Z,10.23
2018-01-23T22:10:11.621Z,10.67
2018-01-23T22:12:40.330Z,10.37
2018-01-23T22:15:08.650Z,9.97
2018-01-23T22:17:36.988Z,11.37
2018-01-23T22:20:06.118Z,10.77
2018-01-23T22:22:34.435Z,11.07
2018-01-23T22:25:02.780Z,11.17
2018-01-23T22:27:31.144Z,11.63
2018-01-23T22:29:59.473Z,11.47
2018-01-23T22:32:27.802Z,11.73
2018-01-23T22:34:56.561Z,11.40
2018-01-23T22:37:25.684Z,11.10
2018-01-23T22:39:53.990Z,11.97
2018-01-23T22:42:22.323Z,12.53
2018-01-23T22:44:51.417Z,11.80
2018-01-23T22:47:19.732Z,11.90
2018-01-23T22:49:48.104Z,12.23
2018-01-23T22:52:16.591Z,12.13
2018-01-23T22:54:44.890Z,11.90
2018-01-23T22:57:13.810Z,12.10
2018-01-23T22:59:42.112Z,11.17
2018-01-23T23:02:11.194Z,12.33
2018-01-23T23:04:39.546Z,12.87
2018-01-23T23:07:07.840Z,11.90
2018-01-23T23:09:36.150Z,13.70
2018-01-23T23:12:04.496Z,12.60
2018-01-23T23:14:32.819Z,11.57
2018-01-23T23:17:01.134Z,11.20
2018-01-23T23:19:30.148Z,12.77
2018-01-23T23:21:58.478Z,11.83
2018-01-23T23:24:26.818Z,13.10
2018-01-23T23:26:55.920Z,12.60
2018-01-23T23:29:24.987Z,11.80
2018-01-23T23:31:53.381Z,13.30
2018-01-23T23:34:21.722Z,12.93
2018-01-23T23:36:50.024Z,13.50
2018-01-23T23:39:18.346Z,13.40
2018-01-23T23:41:46.952Z,14.70
2018-01-23T23:44:15.260Z,14.77
2018-01-23T23:46:43.585Z,15.00
2018-01-23T23:49:11.904Z,12.73
2018-01-23T23:51:40.206Z,14.07
2018-01-23T23:54:08.519Z,14.57
2018-01-23T23:56:36.852Z,14.80
2018-01-23T23:59:05.146Z,13.87
